Time;durP1;ratioP1;P1;durP2;ratioP2;P2;SDS_P1;SDS_P2;PMS_P1;PMS_P2;Temp;Humidity;BMP_temperature;BMP_pressure;BME280_temperature;BME280_humidity;BME280_pressure;Samples;Min_cycle;Max_cycle;Signal;HPM_P1;HPM_P2
2021/12/23 00:00:34;;;;;;;25.30;17.10;;;-0.40;99.90;;;;;;5077999;28;20552;-70
2021/12/23 00:03:03;;;;;;;26.90;15.93;;;-0.40;99.90;;;;;;5077767;28;20458;-70
2021/12/23 00:05:33;;;;;;;24.37;17.23;;;-0.40;99.90;;;;;;5077582;28;20789;-70
2021/12/23 00:08:00;;;;;;;25.13;15.83;;;-0.40;99.90;;;;;;5077621;28;20482;-70
2021/12/23 00:10:27;;;;;;;30.83;17.10;;;-0.40;99.90;;;;;;5077824;28;20458;-69
2021/12/23 00:12:56;;;;;;;27.07;16.77;;;-0.40;99.90;;;;;;5077624;28;20489;-68
2021/12/23 00:15:29;;;;;;;25.40;16.00;;;-0.50;99.90;;;;;;5077689;28;20468;-70
2021/12/23 00:18:00;;;;;;;26.40;15.80;;;-0.50;99.90;;;;;;5077445;28;20499;-72
2021/12/23 00:23:26;;;;;;;26.40;16.53;;;-0.50;99.90;;;;;;5078457;28;20430;-70
2021/12/23 00:26:00;;;;;;;27.40;17.53;;;-0.40;99.90;;;;;;5078143;28;20500;-70
2021/12/23 00:28:28;;;;;;;27.47;16.93;;;-0.40;99.90;;;;;;5077755;28;20466;-71
2021/12/23 00:30:55;;;;;;;27.93;17.90;;;-0.50;99.90;;;;;;5077778;28;20519;-70
2021/12/23 00:33:23;;;;;;;25.17;17.40;;;-0.50;99.90;;;;;;5078010;28;20454;-70
2021/12/23 00:35:53;;;;;;;28.30;17.07;;;-0.50;99.90;;;;;;5077575;28;20941;-70
2021/12/23 00:38:23;;;;;;;28.20;17.50;;;-0.50;99.90;;;;;;5077461;28;20450;-70
2021/12/23 00:40:51;;;;;;;29.70;16.63;;;-0.60;99.90;;;;;;5077046;28;20961;-71
2021/12/23 00:43:19;;;;;;;29.07;16.57;;;-0.60;99.90;;;;;;5076895;28;20915;-70
2021/12/23 00:45:45;;;;;;;31.60;17.67;;;-0.70;99.90;;;;;;5077002;28;20454;-71
2021/12/23 00:48:12;;;;;;;29.40;16.97;;;-0.80;99.90;;;;;;5077175;28;20489;-71
2021/12/23 00:50:39;;;;;;;24.47;16.40;;;-0.80;99.90;;;;;;5077803;28;20466;-69
2021/12/23 00:53:09;;;;;;;25.83;16.90;;;-0.80;99.90;;;;;;5077408;28;20461;-70
2021/12/23 00:55:36;;;;;;;26.70;16.90;;;-0.80;99.90;;;;;;5078065;28;20547;-71
2021/12/23 00:58:02;;;;;;;30.43;18.20;;;-0.80;99.90;;;;;;5078805;28;20450;-70
2021/12/23 01:00:30;;;;;;;27.90;17.60;;;-0.80;99.90;;;;;;5078995;28;20557;-70
2021/12/23 01:02:59;;;;;;;26.40;16.60;;;-0.80;99.90;;;;;;5079413;28;20531;-70
2021/12/23 01:05:27;;;;;;;28.33;18.70;;;-0.80;99.90;;;;;;5078283;28;20486;-70
2021/12/23 01:07:54;;;;;;;24.63;17.00;;;-0.70;99.90;;;;;;5077040;28;20998;-70
2021/12/23 01:10:24;;;;;;;27.50;17.00;;;-0.60;99.90;;;;;;5077771;28;20455;-70
2021/12/23 01:12:56;;;;;;;24.93;15.80;;;-0.60;99.90;;;;;;5078797;28;20578;-70
2021/12/23 01:15:50;;;;;;;28.40;17.80;;;-0.50;99.90;;;;;;5077125;28;20967;-70
2021/12/23 01:18:20;;;;;;;25.47;15.87;;;-0.50;99.90;;;;;;5077003;28;20579;-70
2021/12/23 01:20:51;;;;;;;24.40;15.40;;;-0.50;99.90;;;;;;5076441;28;20468;-70
2021/12/23 01:23:20;;;;;;;30.67;16.63;;;-0.50;99.90;;;;;;5076632;28;20446;-70
2021/12/23 01:25:48;;;;;;;26.27;15.93;;;-0.50;99.90;;;;;;5080026;28;20875;-70
2021/12/23 01:28:15;;;;;;;28.10;18.70;;;-0.50;99.90;;;;;;5083126;28;20482;-70
2021/12/23 01:30:42;;;;;;;26.97;16.90;;;-0.60;99.90;;;;;;5077490;28;20541;-70
2021/12/23 01:33:10;;;;;;;26.50;16.60;;;-0.70;99.90;;;;;;5076670;28;20458;-70
2021/12/23 01:35:44;;;;;;;25.20;15.67;;;-0.80;99.90;;;;;;5078903;28;20523;-70
2021/12/23 01:38:11;;;;;;;28.50;18.17;;;-0.80;99.90;;;;;;5081317;28;20718;-70
2021/12/23 01:40:38;;;;;;;28.57;16.73;;;-0.80;99.90;;;;;;5075909;28;20515;-70
2021/12/23 01:43:08;;;;;;;26.53;17.00;;;-0.80;99.90;;;;;;5076102;28;20465;-70
2021/12/23 01:45:45;;;;;;;25.90;17.63;;;-0.90;99.90;;;;;;5075960;28;20526;-70
2021/12/23 01:48:12;;;;;;;30.90;18.00;;;-0.90;99.90;;;;;;5075799;28;20463;-70
2021/12/23 01:50:39;;;;;;;26.80;17.17;;;-0.90;99.90;;;;;;5075895;28;20469;-70
2021/12/23 01:53:08;;;;;;;27.07;17.53;;;-0.90;99.90;;;;;;5075907;28;20930;-70
2021/12/23 01:55:36;;;;;;;30.70;16.27;;;-0.90;99.90;;;;;;5075227;28;20473;-70
2021/12/23 01:58:08;;;;;;;23.47;16.60;;;-0.90;99.90;;;;;;5075395;28;20488;-70
2021/12/23 02:00:38;;;;;;;26.13;16.17;;;-0.90;99.90;;;;;;5075648;28;20537;-70
2021/12/23 02:03:08;;;;;;;24.23;16.53;;;-1.00;99.90;;;;;;5075833;28;20462;-70
2021/12/23 02:05:34;;;;;;;25.30;16.53;;;-0.90;99.90;;;;;;5075142;28;20493;-70
2021/12/23 02:08:04;;;;;;;26.13;15.57;;;-0.90;99.90;;;;;;5076060;28;20800;-70
2021/12/23 02:10:31;;;;;;;26.53;16.73;;;-1.00;99.90;;;;;;5075905;28;20458;-70
2021/12/23 02:12:59;;;;;;;21.67;15.33;;;-1.00;99.90;;;;;;5075548;28;20519;-69
2021/12/23 02:15:27;;;;;;;28.47;18.50;;;-1.00;99.90;;;;;;5075367;28;21039;-69
2021/12/23 02:17:55;;;;;;;23.20;16.23;;;-1.00;99.90;;;;;;5074737;28;20454;-69
2021/12/23 02:20:25;;;;;;;31.57;17.70;;;-0.90;99.90;;;;;;5075422;28;20455;-70
2021/12/23 02:22:53;;;;;;;27.80;17.60;;;-0.90;99.90;;;;;;5075213;28;20458;-70
2021/12/23 02:25:23;;;;;;;27.13;16.77;;;-0.90;99.90;;;;;;5074671;28;20481;-70
2021/12/23 02:27:50;;;;;;;29.20;16.77;;;-0.90;99.90;;;;;;5075188;28;20451;-69
2021/12/23 02:30:22;;;;;;;31.13;18.00;;;-0.90;99.90;;;;;;5075184;28;20799;-71
2021/12/23 02:32:49;;;;;;;27.80;17.50;;;-0.90;99.90;;;;;;5074917;28;20482;-70
2021/12/23 02:35:18;;;;;;;27.27;17.37;;;-0.80;99.90;;;;;;5075080;28;20454;-70
2021/12/23 02:37:47;;;;;;;27.07;16.77;;;-0.80;99.90;;;;;;5075154;28;20782;-70
2021/12/23 02:40:28;;;;;;;24.93;15.57;;;-0.90;99.90;;;;;;5074420;28;20895;-70
2021/12/23 02:42:56;;;;;;;43.73;18.47;;;-0.90;99.90;;;;;;5074911;28;20821;-70
2021/12/23 02:45:23;;;;;;;29.37;18.57;;;-1.00;99.90;;;;;;5074936;28;20450;-70
2021/12/23 02:47:50;;;;;;;28.03;16.33;;;-1.00;99.90;;;;;;5074627;28;20540;-70
2021/12/23 02:50:20;;;;;;;24.90;17.30;;;-0.90;99.90;;;;;;5074770;28;20787;-70
2021/12/23 02:52:48;;;;;;;26.13;17.13;;;-0.90;99.90;;;;;;5074825;28;20455;-70
2021/12/23 02:55:18;;;;;;;30.63;18.60;;;-1.00;99.90;;;;;;5074703;28;20465;-70
2021/12/23 02:57:45;;;;;;;26.37;16.90;;;-0.90;99.90;;;;;;5074607;28;20450;-70
2021/12/23 03:00:14;;;;;;;27.67;17.67;;;-0.90;99.90;;;;;;5074752;28;20461;-70
2021/12/23 03:02:43;;;;;;;27.00;17.57;;;-0.80;99.90;;;;;;5074588;28;20458;-70
2021/12/23 03:05:10;;;;;;;27.40;18.37;;;-0.80;99.90;;;;;;5074376;28;20489;-69
2021/12/23 03:07:37;;;;;;;29.90;18.30;;;-0.80;99.90;;;;;;5074772;28;20455;-69
2021/12/23 03:10:08;;;;;;;27.07;17.63;;;-0.80;99.90;;;;;;5074523;28;20781;-69
2021/12/23 03:12:37;;;;;;;25.20;17.60;;;-0.80;99.90;;;;;;5074487;28;20439;-70
2021/12/23 03:15:05;;;;;;;29.73;16.90;;;-0.90;99.90;;;;;;5073611;28;20457;-69
2021/12/23 03:17:32;;;;;;;28.83;18.53;;;-0.90;99.90;;;;;;5074459;28;20458;-70
2021/12/23 03:19:58;;;;;;;33.33;18.77;;;-0.80;99.90;;;;;;5074385;28;20510;-70
2021/12/23 03:22:28;;;;;;;24.63;17.40;;;-0.80;99.90;;;;;;5074720;28;20457;-69
2021/12/23 03:24:54;;;;;;;25.87;17.60;;;-0.80;99.90;;;;;;5074490;28;20462;-69
2021/12/23 03:27:25;;;;;;;27.40;18.37;;;-0.90;99.90;;;;;;5074318;28;20537;-70
2021/12/23 03:29:54;;;;;;;27.80;18.10;;;-0.90;99.90;;;;;;5076414;28;20795;-70
2021/12/23 03:32:21;;;;;;;26.13;16.97;;;-1.00;99.90;;;;;;5078349;28;20458;-70
2021/12/23 03:34:48;;;;;;;31.90;18.03;;;-0.90;99.90;;;;;;5078356;28;20779;-70
2021/12/23 03:37:14;;;;;;;30.73;18.83;;;-1.00;99.90;;;;;;5078422;28;20525;-69
2021/12/23 03:39:43;;;;;;;27.10;18.63;;;-1.00;99.90;;;;;;5078230;28;20533;-69
2021/12/23 03:42:10;;;;;;;28.70;18.70;;;-1.00;99.90;;;;;;5078291;28;20465;-70
2021/12/23 03:44:38;;;;;;;31.17;18.50;;;-1.00;99.90;;;;;;5078254;28;20468;-70
2021/12/23 03:47:05;;;;;;;29.10;19.60;;;-1.10;99.90;;;;;;5078174;28;20472;-69
2021/12/23 03:49:37;;;;;;;31.30;18.57;;;-1.10;99.90;;;;;;5077991;28;20504;-71
2021/12/23 03:52:04;;;;;;;26.47;17.97;;;-1.10;99.90;;;;;;5078261;28;20458;-70
2021/12/23 03:54:31;;;;;;;27.40;18.70;;;-1.00;99.90;;;;;;5077939;28;20465;-70
2021/12/23 03:56:58;;;;;;;28.97;19.23;;;-1.00;99.90;;;;;;5078222;28;20454;-70
2021/12/23 03:59:25;;;;;;;27.90;17.97;;;-1.00;99.90;;;;;;5078648;28;20863;-70
2021/12/23 04:01:53;;;;;;;29.47;19.10;;;-1.10;99.90;;;;;;5078995;28;20457;-70
2021/12/23 04:04:19;;;;;;;29.87;19.17;;;-1.10;99.90;;;;;;5077877;28;20551;-70
2021/12/23 04:06:46;;;;;;;34.90;20.20;;;-1.20;99.90;;;;;;5077976;28;20483;-70
2021/12/23 04:09:13;;;;;;;31.40;18.70;;;-1.20;99.90;;;;;;5077706;28;20481;-70
2021/12/23 04:11:41;;;;;;;33.43;20.37;;;-1.10;99.90;;;;;;5078191;28;20757;-70
2021/12/23 04:14:13;;;;;;;30.60;20.50;;;-1.10;99.90;;;;;;5078866;28;20466;-70
2021/12/23 04:16:39;;;;;;;31.83;19.97;;;-1.00;99.90;;;;;;5078289;28;20473;-71
2021/12/23 04:19:10;;;;;;;34.07;21.23;;;-1.00;99.90;;;;;;5077943;28;20464;-69
2021/12/23 04:21:37;;;;;;;30.03;19.37;;;-1.00;99.90;;;;;;5077741;28;20446;-69
2021/12/23 04:24:05;;;;;;;31.03;19.43;;;-1.00;99.90;;;;;;5077911;28;20458;-70
2021/12/23 04:26:32;;;;;;;28.43;17.67;;;-1.00;99.90;;;;;;5078263;28;20926;-70
2021/12/23 04:28:59;;;;;;;30.70;20.07;;;-1.00;99.90;;;;;;5078073;28;20486;-70
2021/12/23 04:31:26;;;;;;;35.23;19.20;;;-0.90;99.90;;;;;;5077873;28;20845;-69
2021/12/23 04:33:54;;;;;;;28.43;18.63;;;-0.90;99.90;;;;;;5077363;28;20775;-70
2021/12/23 04:36:25;;;;;;;29.50;19.87;;;-0.80;99.90;;;;;;5077768;28;20465;-69
2021/12/23 04:38:54;;;;;;;29.20;19.80;;;-0.80;99.90;;;;;;5077177;28;20443;-71
2021/12/23 04:41:21;;;;;;;34.93;20.03;;;-0.90;99.90;;;;;;5076623;28;20538;-71
2021/12/23 04:43:47;;;;;;;34.03;19.33;;;-0.90;99.90;;;;;;5077276;28;20469;-71
2021/12/23 04:46:14;;;;;;;35.83;19.47;;;-0.80;99.90;;;;;;5077148;28;20516;-70
2021/12/23 04:48:41;;;;;;;32.40;20.23;;;-0.80;99.90;;;;;;5078813;28;20934;-70
2021/12/23 04:51:08;;;;;;;30.80;19.80;;;-0.80;99.90;;;;;;5078211;28;20490;-71
2021/12/23 04:53:36;;;;;;;30.20;19.07;;;-0.80;99.90;;;;;;5077174;28;20519;-71
2021/12/23 04:56:02;;;;;;;32.50;18.83;;;-0.70;99.90;;;;;;5076756;28;20485;-69
2021/12/23 04:58:29;;;;;;;30.83;20.70;;;-0.70;99.90;;;;;;5076934;28;20469;-70
2021/12/23 05:00:56;;;;;;;34.43;19.57;;;-0.70;99.90;;;;;;5076834;28;20466;-70
2021/12/23 05:03:27;;;;;;;29.93;18.27;;;-0.60;99.90;;;;;;5076792;28;20454;-70
2021/12/23 05:05:54;;;;;;;28.53;18.90;;;-0.70;99.90;;;;;;5076479;28;20477;-70
2021/12/23 05:08:20;;;;;;;33.60;20.57;;;-0.60;99.90;;;;;;5077036;28;20454;-70
2021/12/23 05:10:49;;;;;;;32.80;20.60;;;-0.60;99.90;;;;;;5076719;28;20767;-71
2021/12/23 05:13:16;;;;;;;30.13;20.37;;;-0.70;99.90;;;;;;5077308;28;20802;-69
2021/12/23 05:15:42;;;;;;;34.20;20.87;;;-0.90;99.90;;;;;;5076498;28;20458;-70
2021/12/23 05:18:09;;;;;;;34.03;19.80;;;-1.00;99.90;;;;;;5076749;28;20462;-70
2021/12/23 05:20:36;;;;;;;35.57;19.20;;;-0.90;99.90;;;;;;5076245;28;20481;-70
2021/12/23 05:23:03;;;;;;;32.30;21.47;;;-0.90;99.90;;;;;;5076264;28;20484;-70
2021/12/23 05:25:29;;;;;;;36.40;20.27;;;-0.80;99.90;;;;;;5076433;28;20463;-70
2021/12/23 05:28:00;;;;;;;33.77;20.23;;;-0.80;99.90;;;;;;5076142;28;20473;-70
2021/12/23 05:30:27;;;;;;;28.43;19.60;;;-0.80;99.90;;;;;;5076163;28;20463;-70
2021/12/23 05:32:54;;;;;;;34.60;20.43;;;-0.70;99.90;;;;;;5075848;28;20545;-70
2021/12/23 05:35:22;;;;;;;33.50;20.77;;;-0.70;99.90;;;;;;5075843;28;20465;-70
2021/12/23 05:37:52;;;;;;;34.30;20.97;;;-0.80;99.90;;;;;;5075516;28;20459;-70
2021/12/23 05:40:21;;;;;;;32.33;19.90;;;-0.80;99.90;;;;;;5076007;28;20465;-70
2021/12/23 05:42:50;;;;;;;30.00;19.40;;;-0.80;99.90;;;;;;5076025;28;20466;-70
2021/12/23 05:45:19;;;;;;;33.60;20.10;;;-0.70;99.90;;;;;;5075997;28;20891;-70
2021/12/23 05:47:48;;;;;;;32.30;19.73;;;-0.60;99.90;;;;;;5075755;28;20541;-69
2021/12/23 05:50:15;;;;;;;36.70;21.57;;;-0.60;99.90;;;;;;5075564;28;20567;-70
2021/12/23 05:52:45;;;;;;;30.23;20.60;;;-0.60;99.90;;;;;;5074900;28;20469;-70
2021/12/23 05:55:13;;;;;;;34.00;20.40;;;-0.60;99.90;;;;;;5075620;28;20458;-69
2021/12/23 05:57:41;;;;;;;31.00;21.03;;;-0.60;99.90;;;;;;5075665;28;20459;-69
2021/12/23 06:00:12;;;;;;;29.70;19.43;;;-0.60;99.90;;;;;;5075635;28;20523;-70
2021/12/23 06:02:40;;;;;;;30.70;20.13;;;-0.60;99.90;;;;;;5076143;28;20462;-70
2021/12/23 06:05:07;;;;;;;27.07;19.43;;;-0.60;99.90;;;;;;5075195;28;20482;-70
2021/12/23 06:07:34;;;;;;;32.37;19.90;;;-0.60;99.90;;;;;;5075490;28;20461;-70
2021/12/23 06:10:01;;;;;;;31.87;20.20;;;-0.60;99.90;;;;;;5074929;28;20478;-70
2021/12/23 06:12:28;;;;;;;32.20;19.63;;;-0.60;99.90;;;;;;5075329;28;20458;-71
2021/12/23 06:14:54;;;;;;;30.77;19.43;;;-0.60;99.90;;;;;;5075476;28;20466;-71
2021/12/23 06:17:21;;;;;;;32.20;21.60;;;-0.50;99.90;;;;;;5074957;28;20466;-71
2021/12/23 06:19:49;;;;;;;30.37;21.80;;;-0.50;99.90;;;;;;5075154;28;20834;-71
2021/12/23 06:22:18;;;;;;;32.13;20.80;;;-0.50;99.90;;;;;;5074599;28;20470;-71
2021/12/23 06:24:46;;;;;;;39.13;21.03;;;-0.60;99.90;;;;;;5075019;28;20616;-70
2021/12/23 06:27:13;;;;;;;31.47;19.57;;;-0.50;99.90;;;;;;5074901;28;20461;-70
2021/12/23 06:29:40;;;;;;;34.63;22.37;;;-0.50;99.90;;;;;;5074379;28;20489;-71
2021/12/23 06:32:07;;;;;;;32.53;19.97;;;-0.50;99.90;;;;;;5075700;28;20469;-70
2021/12/23 06:34:34;;;;;;;27.03;18.80;;;-0.50;99.90;;;;;;5075664;28;20454;-71
2021/12/23 06:37:06;;;;;;;33.30;21.87;;;-0.50;99.90;;;;;;5076227;28;20454;-70
2021/12/23 06:39:33;;;;;;;31.43;20.80;;;-0.40;99.90;;;;;;5075992;28;20780;-70
2021/12/23 06:42:00;;;;;;;30.50;19.83;;;-0.40;99.90;;;;;;5074678;28;20462;-70
2021/12/23 06:44:26;;;;;;;31.87;20.43;;;-0.40;99.90;;;;;;5074855;28;20466;-70
2021/12/23 06:46:53;;;;;;;32.93;22.40;;;-0.40;99.90;;;;;;5074856;28;20849;-70
2021/12/23 06:49:20;;;;;;;31.07;19.87;;;-0.30;99.90;;;;;;5074715;28;20497;-70
2021/12/23 06:51:47;;;;;;;32.00;20.07;;;-0.30;99.90;;;;;;5074646;28;20459;-69
2021/12/23 06:54:18;;;;;;;31.57;19.37;;;-0.20;99.90;;;;;;5074880;28;20469;-69
2021/12/23 06:56:46;;;;;;;27.60;18.33;;;-0.20;99.90;;;;;;5074941;28;20756;-69
2021/12/23 06:59:15;;;;;;;29.40;20.10;;;-0.10;99.90;;;;;;5074332;28;20902;-70
2021/12/23 07:01:41;;;;;;;27.30;18.63;;;-0.10;99.90;;;;;;5074423;28;20455;-70
2021/12/23 07:04:14;;;;;;;37.30;21.07;;;-0.20;99.90;;;;;;5074068;28;20588;-70
2021/12/23 07:06:47;;;;;;;32.27;19.50;;;-0.30;99.90;;;;;;5074938;28;20497;-70
2021/12/23 07:09:16;;;;;;;30.70;19.70;;;-0.20;99.90;;;;;;5075198;28;20828;-70
2021/12/23 07:11:42;;;;;;;29.70;19.47;;;-0.10;99.90;;;;;;5077099;28;20591;-70
2021/12/23 07:14:12;;;;;;;34.10;18.67;;;-0.10;99.90;;;;;;5075067;28;20466;-70
2021/12/23 07:16:45;;;;;;;29.40;18.77;;;-0.10;99.90;;;;;;5074739;28;20458;-70
2021/12/23 07:19:11;;;;;;;26.23;17.47;;;-0.10;99.90;;;;;;5074509;28;20438;-70
2021/12/23 07:21:38;;;;;;;26.30;18.70;;;0.10;99.90;;;;;;5074643;28;20457;-70
2021/12/23 07:24:05;;;;;;;28.40;17.77;;;0.10;99.90;;;;;;5074534;28;20512;-70
2021/12/23 07:26:34;;;;;;;26.70;18.37;;;0.00;99.90;;;;;;5074311;28;20469;-69
2021/12/23 07:29:00;;;;;;;31.20;19.10;;;-0.10;99.90;;;;;;5074778;28;20458;-69
2021/12/23 07:31:27;;;;;;;33.77;19.37;;;-0.10;99.90;;;;;;5074413;28;20478;-69
2021/12/23 07:33:54;;;;;;;28.47;18.63;;;-0.10;99.90;;;;;;5073987;28;20903;-70
2021/12/23 07:36:22;;;;;;;29.60;17.27;;;-0.20;99.90;;;;;;5074341;28;20454;-71
2021/12/23 07:38:49;;;;;;;30.50;18.57;;;-0.20;99.90;;;;;;5074336;28;20454;-70
2021/12/23 07:41:17;;;;;;;26.73;17.57;;;-0.20;99.90;;;;;;5074027;28;20799;-70
2021/12/23 07:43:59;;;;;;;27.87;17.90;;;-0.30;99.90;;;;;;5074362;28;20472;-70
2021/12/23 07:46:27;;;;;;;29.20;17.80;;;-0.20;99.90;;;;;;5074012;28;20553;-70
2021/12/23 07:48:53;;;;;;;55.03;29.63;;;-0.30;99.90;;;;;;5074268;28;20930;-70
2021/12/23 07:51:21;;;;;;;30.40;18.43;;;-0.20;99.90;;;;;;5073836;28;20485;-70
2021/12/23 07:53:47;;;;;;;25.20;16.60;;;-0.30;99.90;;;;;;5074190;28;20458;-71
2021/12/23 07:56:16;;;;;;;33.37;20.87;;;-0.20;99.90;;;;;;5074236;28;20465;-70
2021/12/23 07:58:44;;;;;;;29.80;18.27;;;-0.20;99.90;;;;;;5074171;28;20461;-71
2021/12/23 08:01:11;;;;;;;29.77;18.60;;;-0.20;99.90;;;;;;5074239;28;20454;-70
2021/12/23 08:03:41;;;;;;;26.60;17.07;;;-0.20;99.90;;;;;;5073684;28;20458;-70
2021/12/23 08:06:07;;;;;;;24.17;16.50;;;-0.10;99.90;;;;;;5073678;28;20473;-70
2021/12/23 08:08:34;;;;;;;34.97;20.07;;;-0.10;99.90;;;;;;5074156;28;20462;-70
2021/12/23 08:11:01;;;;;;;24.80;16.80;;;-0.20;99.90;;;;;;5074184;28;20489;-70
2021/12/23 08:13:28;;;;;;;27.97;17.73;;;-0.20;99.90;;;;;;5076493;28;20454;-70
2021/12/23 08:16:00;;;;;;;29.00;17.90;;;-0.10;99.90;;;;;;5080450;28;20488;-70
2021/12/23 08:18:27;;;;;;;25.07;18.10;;;-0.20;99.90;;;;;;5079747;28;20443;-70
2021/12/23 08:20:53;;;;;;;29.57;18.90;;;-0.10;99.90;;;;;;5077846;28;20533;-70
2021/12/23 08:23:23;;;;;;;28.30;18.17;;;-0.20;99.90;;;;;;5077480;28;20453;-70
2021/12/23 08:25:50;;;;;;;25.57;16.30;;;-0.10;99.90;;;;;;5077830;28;20465;-70
2021/12/23 08:28:17;;;;;;;29.57;17.23;;;-0.10;99.90;;;;;;5077370;28;20555;-72
2021/12/23 08:30:43;;;;;;;30.90;18.27;;;-0.10;99.90;;;;;;5077329;28;20482;-71
2021/12/23 08:33:12;;;;;;;33.80;17.87;;;0.00;99.90;;;;;;5076972;28;20557;-71
2021/12/23 08:35:39;;;;;;;27.23;16.63;;;0.10;99.90;;;;;;5076985;28;20919;-70
2021/12/23 08:38:06;;;;;;;30.67;17.20;;;0.10;99.90;;;;;;5077175;28;20466;-71
2021/12/23 08:40:34;;;;;;;25.43;17.17;;;0.10;99.90;;;;;;5077220;28;20770;-70
2021/12/23 08:43:02;;;;;;;28.70;17.53;;;0.20;99.90;;;;;;5077357;28;20454;-70
2021/12/23 08:45:31;;;;;;;32.23;20.50;;;0.30;99.90;;;;;;5076923;28;20469;-70
2021/12/23 08:47:58;;;;;;;28.10;17.57;;;0.30;99.90;;;;;;5077114;28;20474;-70
2021/12/23 08:50:28;;;;;;;29.13;18.20;;;0.30;99.90;;;;;;5076875;28;20813;-70
2021/12/23 08:52:56;;;;;;;25.83;15.97;;;0.30;99.90;;;;;;5077170;28;20508;-70
2021/12/23 08:55:24;;;;;;;27.57;17.20;;;0.30;99.90;;;;;;5077037;28;20454;-70
2021/12/23 08:57:51;;;;;;;25.40;17.60;;;0.30;99.90;;;;;;5077215;28;20484;-70
2021/12/23 09:00:20;;;;;;;30.03;16.93;;;0.30;99.90;;;;;;5076768;28;20891;-70
2021/12/23 09:02:48;;;;;;;27.17;17.83;;;0.30;99.90;;;;;;5076890;28;20462;-69
2021/12/23 09:05:17;;;;;;;27.10;16.90;;;0.30;99.90;;;;;;5076345;28;20511;-71
2021/12/23 09:07:45;;;;;;;27.40;17.27;;;0.40;99.90;;;;;;5076966;28;20501;-69
2021/12/23 09:10:15;;;;;;;27.03;17.43;;;0.40;99.90;;;;;;5076059;28;20981;-70
2021/12/23 09:12:42;;;;;;;25.70;16.83;;;0.40;99.90;;;;;;5076697;28;20469;-70
2021/12/23 09:15:10;;;;;;;29.30;16.83;;;0.40;99.90;;;;;;5076273;28;20460;-70
2021/12/23 09:17:37;;;;;;;31.03;17.23;;;0.40;99.90;;;;;;5076238;28;20923;-71
2021/12/23 09:20:05;;;;;;;27.00;18.27;;;0.50;99.90;;;;;;5076465;28;20462;-70
2021/12/23 09:22:32;;;;;;;25.10;17.07;;;0.60;99.90;;;;;;5075962;28;20451;-71
2021/12/23 09:25:07;;;;;;;25.50;17.57;;;0.60;99.90;;;;;;5075761;28;20465;-70
2021/12/23 09:27:44;;;;;;;23.87;16.30;;;0.70;99.90;;;;;;5075839;28;20472;-70
2021/12/23 09:33:00;;;;;;;29.27;17.70;;;0.60;99.90;;;;;;5075782;28;20742;-71
2021/12/23 09:35:30;;;;;;;28.93;17.53;;;0.50;99.90;;;;;;5075984;28;20516;-70
2021/12/23 09:38:00;;;;;;;21.70;15.20;;;0.60;99.90;;;;;;5076072;28;20918;-69
2021/12/23 09:40:32;;;;;;;26.63;17.10;;;0.60;99.90;;;;;;5076236;28;20439;-70
2021/12/23 09:43:00;;;;;;;29.93;16.70;;;0.70;99.90;;;;;;5075867;28;20470;-69
2021/12/23 09:45:28;;;;;;;31.30;17.50;;;0.70;99.90;;;;;;5075853;28;20450;-70
2021/12/23 09:47:56;;;;;;;29.20;16.93;;;0.70;99.90;;;;;;5075873;28;20922;-70
2021/12/23 09:50:25;;;;;;;23.87;15.77;;;0.60;99.90;;;;;;5075841;28;20797;-70
2021/12/23 09:52:54;;;;;;;23.10;16.03;;;0.50;99.90;;;;;;5076022;28;20917;-69
2021/12/23 09:55:26;;;;;;;25.73;15.13;;;0.60;99.90;;;;;;5075634;28;20458;-70
2021/12/23 09:57:57;;;;;;;23.93;15.90;;;0.60;99.90;;;;;;5076076;28;20442;-70
2021/12/23 10:00:29;;;;;;;24.80;16.43;;;0.60;99.90;;;;;;5075827;28;20822;-71
2021/12/23 10:02:57;;;;;;;27.77;17.10;;;0.60;99.90;;;;;;5075757;28;20545;-71
2021/12/23 10:05:27;;;;;;;24.43;16.43;;;0.60;99.90;;;;;;5075333;28;20544;-70
2021/12/23 10:07:55;;;;;;;24.40;15.50;;;0.50;99.90;;;;;;5075792;28;20465;-70
2021/12/23 10:10:25;;;;;;;24.83;15.20;;;0.50;99.90;;;;;;5075703;28;20478;-70
2021/12/23 10:32:50;;;;;;;23.93;15.40;;;0.50;99.90;;;;;;5075277;28;20426;-70
2021/12/23 10:38:06;;;;;;;28.10;16.50;;;0.40;99.90;;;;;;5074798;28;20426;-69
2021/12/23 10:40:32;;;;;;;27.33;16.07;;;0.50;99.90;;;;;;5074214;28;20503;-70
2021/12/23 10:43:02;;;;;;;27.80;16.60;;;0.60;99.90;;;;;;5074803;28;20588;-70
2021/12/23 10:45:39;;;;;;;27.37;16.50;;;0.70;99.90;;;;;;5074714;28;20462;-70
2021/12/23 10:48:15;;;;;;;23.20;14.77;;;0.60;99.90;;;;;;5075407;28;20850;-70
2021/12/23 10:50:46;;;;;;;23.67;16.17;;;0.70;99.90;;;;;;5074343;28;20477;-70
2021/12/23 10:53:27;;;;;;;25.30;15.87;;;0.70;99.90;;;;;;5075111;28;20442;-71
2021/12/23 10:59:08;;;;;;;26.80;16.10;;;0.90;99.90;;;;;;5074664;28;20417;-70
2021/12/23 11:01:57;;;;;;;23.00;14.50;;;1.00;99.90;;;;;;5074361;28;20980;-70
2021/12/23 11:04:24;;;;;;;24.97;16.37;;;1.10;99.90;;;;;;5073863;28;20477;-70
2021/12/23 11:07:11;;;;;;;22.80;15.50;;;1.20;99.90;;;;;;5074726;28;20454;-70
2021/12/23 11:09:54;;;;;;;23.07;14.43;;;1.20;99.90;;;;;;5074410;28;20453;-70
2021/12/23 11:37:53;;;;;;;20.70;13.17;;;1.20;99.90;;;;;;5074140;28;20429;-71
2021/12/23 11:40:49;;;;;;;18.23;13.50;;;1.10;99.90;;;;;;5074085;28;20552;-71
2021/12/23 11:46:30;;;;;;;23.97;15.20;;;1.00;99.90;;;;;;5133049;27;20999;-69
2021/12/23 11:49:00;;;;;;;20.90;14.30;;;1.00;99.90;;;;;;5133088;28;20436;-70
2021/12/23 11:51:32;;;;;;;18.97;14.03;;;1.00;99.90;;;;;;5132980;28;20884;-71
2021/12/23 11:54:02;;;;;;;29.57;14.83;;;1.00;99.90;;;;;;5133162;28;20447;-70
2021/12/23 11:56:30;;;;;;;21.97;15.43;;;1.10;99.90;;;;;;5133165;28;20485;-70
2021/12/23 11:59:04;;;;;;;21.27;13.40;;;1.20;99.90;;;;;;5133246;28;20947;-70
2021/12/23 12:01:42;;;;;;;24.33;15.67;;;1.30;99.90;;;;;;5133008;28;20464;-70
2021/12/23 12:04:13;;;;;;;25.13;13.77;;;1.40;99.90;;;;;;5132730;28;20435;-70
2021/12/23 12:06:45;;;;;;;21.77;13.10;;;1.50;99.90;;;;;;5132794;28;20450;-70
2021/12/23 12:09:15;;;;;;;21.03;13.30;;;1.50;99.90;;;;;;5133818;28;20542;-70
2021/12/23 12:11:47;;;;;;;19.77;12.80;;;1.60;99.90;;;;;;5134885;28;20462;-70
2021/12/23 12:14:33;;;;;;;17.90;12.50;;;1.90;99.90;;;;;;5134908;28;20454;-70
2021/12/23 12:17:34;;;;;;;19.40;11.73;;;2.20;99.90;;;;;;5133543;28;20509;-70
2021/12/23 12:20:08;;;;;;;20.50;14.23;;;2.30;99.90;;;;;;5133221;28;20925;-70
2021/12/23 12:22:48;;;;;;;16.80;12.63;;;2.10;99.90;;;;;;5132423;28;20813;-70
2021/12/23 12:25:56;;;;;;;16.37;12.53;;;2.10;99.90;;;;;;5132572;28;20477;-70
2021/12/23 12:28:42;;;;;;;18.70;11.73;;;2.10;99.90;;;;;;5132341;28;20466;-70
2021/12/23 12:31:12;;;;;;;18.73;12.00;;;2.00;99.90;;;;;;5132430;28;20447;-70
2021/12/23 12:33:43;;;;;;;17.70;12.80;;;2.00;99.90;;;;;;5132262;28;20467;-70
2021/12/23 12:36:14;;;;;;;21.30;13.00;;;2.00;99.90;;;;;;5134002;28;20543;-70
2021/12/23 12:38:43;;;;;;;17.77;13.03;;;2.00;99.90;;;;;;5135968;28;20436;-70
2021/12/23 12:41:13;;;;;;;17.37;12.37;;;2.00;99.90;;;;;;5134118;28;20460;-70
2021/12/23 12:44:01;;;;;;;15.37;11.20;;;2.00;99.90;;;;;;5133006;28;20452;-71
2021/12/23 12:47:01;;;;;;;20.33;12.40;;;1.90;99.90;;;;;;5132634;28;20470;-70
2021/12/23 12:49:30;;;;;;;16.70;12.83;;;1.90;99.90;;;;;;5133205;28;20467;-70
2021/12/23 12:52:13;;;;;;;16.90;13.03;;;1.80;99.90;;;;;;5132063;28;20504;-70
2021/12/23 12:54:51;;;;;;;19.13;13.13;;;1.70;99.90;;;;;;5132584;27;20448;-70
2021/12/23 12:57:20;;;;;;;16.30;12.20;;;1.80;99.90;;;;;;5120470;28;20448;-70
2021/12/23 12:59:49;;;;;;;17.60;13.30;;;1.80;99.90;;;;;;5117699;28;20467;-70
2021/12/23 13:02:22;;;;;;;16.97;12.90;;;1.90;99.90;;;;;;5117635;28;20554;-71
2021/12/23 13:05:04;;;;;;;19.30;11.60;;;1.90;99.90;;;;;;5117746;28;20545;-70
2021/12/23 13:07:35;;;;;;;18.57;12.80;;;1.80;99.90;;;;;;5118522;28;20502;-70
2021/12/23 13:10:10;;;;;;;17.40;12.60;;;1.80;99.90;;;;;;5117912;28;20451;-70
2021/12/23 13:12:46;;;;;;;22.40;13.20;;;1.90;99.90;;;;;;5118484;28;20476;-70
2021/12/23 13:15:17;;;;;;;21.93;13.27;;;1.90;99.90;;;;;;5117975;28;20440;-71
2021/12/23 13:17:50;;;;;;;19.33;12.77;;;2.00;99.90;;;;;;5117788;28;20440;-71
2021/12/23 13:20:18;;;;;;;21.53;12.70;;;2.00;99.90;;;;;;5118083;28;20459;-71
2021/12/23 13:22:46;;;;;;;20.27;13.70;;;1.90;99.90;;;;;;5117836;28;20471;-70
2021/12/23 13:25:14;;;;;;;14.67;11.40;;;1.90;99.90;;;;;;5117745;28;20487;-71
2021/12/23 13:27:41;;;;;;;18.73;13.90;;;2.00;99.90;;;;;;5117631;28;20466;-71
2021/12/23 13:30:11;;;;;;;19.53;13.70;;;1.90;99.90;;;;;;5118582;28;20772;-70
2021/12/23 13:32:40;;;;;;;18.07;12.33;;;1.90;99.90;;;;;;5117896;28;20936;-71
2021/12/23 13:35:13;;;;;;;17.53;12.80;;;2.00;99.90;;;;;;5117546;28;20448;-70
2021/12/23 13:37:44;;;;;;;18.90;12.17;;;2.00;99.90;;;;;;5117547;28;20456;-70
2021/12/23 13:40:14;;;;;;;23.13;13.77;;;2.00;99.90;;;;;;5117163;28;20513;-70
2021/12/23 13:42:41;;;;;;;17.23;12.07;;;2.00;99.90;;;;;;5117093;28;20460;-70